Time;durP1;ratioP1;P1;durP2;ratioP2;P2;SDS_P1;SDS_P2;PMS_P1;PMS_P2;Temp;Humidity;BMP_temperature;BMP_pressure;BME280_temperature;BME280_humidity;BME280_pressure;Samples;Min_cycle;Max_cycle;Signal;HPM_P1;HPM_P2
2021/11/12 00:14:51;;;;;;;13.25;6.18;;;;;;;;;;5109234;28;20126;-65
2021/11/12 00:17:18;;;;;;;18.85;7.38;;;;;;;;;;5109020;28;20024;-65
2021/11/12 00:19:44;;;;;;;19.67;7.57;;;;;;;;;;5109300;28;20069;-65
2021/11/12 00:22:10;;;;;;;13.25;6.47;;;;;;;;;;5108809;28;20028;-65
2021/11/12 00:24:37;;;;;;;14.43;6.63;;;;;;;;;;5112486;28;20459;-64
2021/11/12 00:27:05;;;;;;;11.95;6.18;;;;;;;;;;5109683;28;20032;-64
2021/11/12 00:29:34;;;;;;;12.27;6.07;;;;;;;;;;5109903;28;20611;-64
2021/11/12 00:32:20;;;;;;;12.90;5.88;;;;;;;;;;5108250;28;20044;-65
2021/11/12 00:40:28;;;;;;;14.23;6.03;;;;;;;;;;5061632;28;20027;-64
2021/11/12 00:45:27;;;;;;;13.73;6.22;;;;;;;;;;5111028;28;20406;-64
2021/11/12 00:55:25;;;;;;;16.27;6.93;;;;;;;;;;5109400;28;20036;-64
2021/11/12 00:57:51;;;;;;;14.57;6.28;;;;;;;;;;5111677;28;20032;-64
2021/11/12 01:00:19;;;;;;;17.88;6.47;;;;;;;;;;5110176;28;20024;-64
2021/11/12 01:02:45;;;;;;;17.95;7.20;;;;;;;;;;5109064;28;20092;-64
2021/11/12 01:05:12;;;;;;;13.98;6.40;;;;;;;;;;5108692;28;20062;-64
2021/11/12 01:07:38;;;;;;;14.13;6.88;;;;;;;;;;5109325;28;20488;-64
2021/11/12 01:10:07;;;;;;;18.17;8.65;;;;;;;;;;5110128;28;20510;-65
2021/11/12 01:12:33;;;;;;;14.60;8.05;;;;;;;;;;5111331;28;20042;-65
2021/11/12 01:14:59;;;;;;;15.85;7.30;;;;;;;;;;5109124;28;20034;-64
2021/11/12 01:17:25;;;;;;;14.85;7.38;;;;;;;;;;5108915;28;20346;-65
2021/11/12 01:19:51;;;;;;;18.40;8.32;;;;;;;;;;5108551;28;20019;-65
2021/11/12 01:22:18;;;;;;;14.48;6.30;;;;;;;;;;5108898;28;20067;-65
2021/11/12 01:24:45;;;;;;;11.52;5.60;;;;;;;;;;5111600;28;20038;-64
2021/11/12 01:27:11;;;;;;;14.50;5.90;;;;;;;;;;5109817;28;20054;-64
2021/11/12 01:29:38;;;;;;;19.33;5.30;;;;;;;;;;5108238;28;20475;-64
2021/11/12 01:32:21;;;;;;;14.80;5.38;;;;;;;;;;5108494;28;20431;-64
2021/11/12 01:34:49;;;;;;;9.43;4.75;;;;;;;;;;5108948;28;20012;-64
2021/11/12 01:37:18;;;;;;;11.35;5.32;;;;;;;;;;5108236;28;20024;-64
2021/11/12 01:39:50;;;;;;;16.85;5.90;;;;;;;;;;5111322;28;20015;-64
2021/11/12 01:42:17;;;;;;;14.63;7.13;;;;;;;;;;5111438;28;20031;-64
2021/11/12 01:44:48;;;;;;;13.00;6.80;;;;;;;;;;5108053;28;20107;-64
2021/11/12 01:49:48;;;;;;;11.52;5.68;;;;;;;;;;5108514;28;20035;-64
2021/11/12 01:52:21;;;;;;;13.23;6.65;;;;;;;;;;5093068;28;20024;-64
2021/11/12 01:54:59;;;;;;;15.77;7.13;;;;;;;;;;5111134;28;20488;-64
2021/11/12 01:59:55;;;;;;;13.27;6.68;;;;;;;;;;5108598;28;20035;-65
2021/11/12 02:02:22;;;;;;;14.82;5.90;;;;;;;;;;5108241;28;20031;-65
2021/11/12 02:04:48;;;;;;;13.80;6.50;;;;;;;;;;5108498;28;20045;-64
2021/11/12 02:07:14;;;;;;;11.88;4.50;;;;;;;;;;5107995;28;20031;-64
2021/11/12 02:09:40;;;;;;;12.75;5.32;;;;;;;;;;5111420;28;20062;-65
2021/11/12 02:14:55;;;;;;;16.50;5.03;;;;;;;;;;5108489;28;20092;-64
2021/11/12 02:17:23;;;;;;;9.40;4.45;;;;;;;;;;5108185;28;20030;-64
2021/11/12 02:19:53;;;;;;;12.00;5.50;;;;;;;;;;5107785;28;20051;-64
2021/11/12 02:22:20;;;;;;;9.05;4.40;;;;;;;;;;5108527;28;20028;-64
2021/11/12 02:25:04;;;;;;;8.13;4.25;;;;;;;;;;5111038;28;20019;-64
2021/11/12 02:27:38;;;;;;;9.05;4.05;;;;;;;;;;5110892;28;20051;-64
2021/11/12 02:30:05;;;;;;;8.05;3.83;;;;;;;;;;5106336;28;20024;-64
2021/11/12 02:32:31;;;;;;;9.70;4.20;;;;;;;;;;5108140;28;20395;-65
2021/11/12 02:34:58;;;;;;;10.10;4.25;;;;;;;;;;5108264;28;20463;-64
2021/11/12 02:37:25;;;;;;;10.93;4.95;;;;;;;;;;5108034;28;20085;-65
2021/11/12 02:39:51;;;;;;;10.27;4.80;;;;;;;;;;5109893;28;20024;-65
2021/11/12 02:42:18;;;;;;;13.38;5.28;;;;;;;;;;5109262;28;20048;-65
2021/11/12 02:44:45;;;;;;;10.25;5.07;;;;;;;;;;5108159;28;20062;-65
2021/11/12 02:47:12;;;;;;;14.77;5.88;;;;;;;;;;5107966;28;20101;-64
2021/11/12 02:49:38;;;;;;;15.38;5.43;;;;;;;;;;5107848;28;20038;-64
2021/11/12 02:52:08;;;;;;;11.18;4.78;;;;;;;;;;5108876;28;20036;-64
2021/11/12 02:54:35;;;;;;;11.40;5.28;;;;;;;;;;5111162;28;20471;-64
2021/11/12 02:57:02;;;;;;;13.20;5.60;;;;;;;;;;5111384;28;20471;-64
2021/11/12 02:59:29;;;;;;;16.73;5.73;;;;;;;;;;5111072;28;20016;-64
2021/11/12 03:01:57;;;;;;;11.90;4.97;;;;;;;;;;5111590;28;20031;-64
2021/11/12 03:04:24;;;;;;;13.52;4.18;;;;;;;;;;5111260;28;20064;-64
2021/11/12 03:06:50;;;;;;;12.90;4.78;;;;;;;;;;5113322;28;20023;-64
2021/11/12 03:09:16;;;;;;;10.27;4.50;;;;;;;;;;5112553;28;20024;-64
2021/11/12 03:11:43;;;;;;;9.10;4.40;;;;;;;;;;5110908;28;20039;-64
2021/11/12 03:14:09;;;;;;;10.20;4.78;;;;;;;;;;5112659;27;20023;-65
2021/11/12 03:16:37;;;;;;;13.07;4.38;;;;;;;;;;5110922;28;20055;-64
2021/11/12 03:19:04;;;;;;;9.40;4.37;;;;;;;;;;5112758;28;20031;-64
2021/11/12 03:21:30;;;;;;;12.57;4.18;;;;;;;;;;5113247;28;20046;-65
2021/11/12 03:27:06;;;;;;;11.63;4.65;;;;;;;;;;5110641;28;20094;-64
2021/11/12 04:17:18;;;;;;;11.10;5.43;;;;;;;;;;5069072;28;20072;-65
2021/11/12 05:45:43;;;;;;;15.75;5.50;;;;;;;;;;5110392;28;20051;-66
2021/11/12 05:55:52;;;;;;;15.07;4.65;;;;;;;;;;5108441;28;20070;-66
2021/11/12 05:58:18;;;;;;;9.27;4.80;;;;;;;;;;5108696;28;20092;-65
2021/11/12 06:00:44;;;;;;;12.07;4.95;;;;;;;;;;5110897;28;20515;-66
2021/11/12 06:03:12;;;;;;;14.48;5.55;;;;;;;;;;5109157;28;20027;-66
2021/11/12 06:05:38;;;;;;;12.38;5.47;;;;;;;;;;5108245;28;20070;-66
2021/11/12 06:08:04;;;;;;;13.15;5.35;;;;;;;;;;5108361;28;20536;-66
2021/11/12 06:10:31;;;;;;;13.80;5.20;;;;;;;;;;5108362;28;20026;-65
2021/11/12 06:12:56;;;;;;;11.45;5.57;;;;;;;;;;5110171;28;20463;-65
2021/11/12 06:15:23;;;;;;;11.85;5.00;;;;;;;;;;5109729;28;20034;-68
2021/11/12 06:17:49;;;;;;;14.15;5.32;;;;;;;;;;5108137;28;20464;-68
2021/11/12 06:20:16;;;;;;;13.43;5.93;;;;;;;;;;5108246;28;20486;-68
2021/11/12 06:22:42;;;;;;;15.85;6.28;;;;;;;;;;5108043;28;20099;-68
2021/11/12 06:25:08;;;;;;;21.80;7.53;;;;;;;;;;5108656;28;20455;-68
2021/11/12 06:27:35;;;;;;;17.67;8.25;;;;;;;;;;5111159;28;20536;-68
2021/11/12 06:30:01;;;;;;;14.32;7.82;;;;;;;;;;5108596;28;20102;-68
2021/11/12 06:32:27;;;;;;;13.55;7.22;;;;;;;;;;5111819;28;20105;-68
2021/11/12 06:34:53;;;;;;;15.82;6.72;;;;;;;;;;5111567;28;20106;-68
2021/11/12 06:37:19;;;;;;;13.18;5.90;;;;;;;;;;5112091;28;20036;-67
2021/11/12 06:39:45;;;;;;;15.57;5.85;;;;;;;;;;5114155;28;20028;-68
2021/11/12 06:42:19;;;;;;;31.02;8.07;;;;;;;;;;5112684;28;20103;-68
2021/11/12 06:49:18;;;;;;;59.63;8.18;;;;;;;;;;5111821;28;20424;-67
2021/11/12 06:50:16;;;;;;;14.63;6.93;;;;;;;;;;5111764;28;20026;-67
2021/11/12 06:52:47;;;;;;;12.40;6.55;;;;;;;;;;5111509;28;20028;-68
2021/11/12 06:55:15;;;;;;;12.57;5.85;;;;;;;;;;5095739;28;20474;-69
2021/11/12 06:57:42;;;;;;;16.05;6.43;;;;;;;;;;5115291;28;20098;-69
2021/11/12 07:00:14;;;;;;;13.27;5.43;;;;;;;;;;5113136;28;20098;-69
2021/11/12 07:02:40;;;;;;;16.38;6.47;;;;;;;;;;5111137;28;20080;-68
2021/11/12 07:05:06;;;;;;;14.45;6.03;;;;;;;;;;5111465;28;20505;-68
2021/11/12 07:07:33;;;;;;;12.13;5.75;;;;;;;;;;5111051;28;20059;-68
2021/11/12 07:09:59;;;;;;;14.05;5.45;;;;;;;;;;5113478;28;20062;-68
2021/11/12 07:12:25;;;;;;;14.35;5.55;;;;;;;;;;5111642;28;20065;-68
2021/11/12 07:14:51;;;;;;;16.60;6.50;;;;;;;;;;5111047;28;20012;-68
2021/11/12 07:17:17;;;;;;;13.10;5.63;;;;;;;;;;5110968;28;20383;-68
2021/11/12 07:19:44;;;;;;;15.55;6.07;;;;;;;;;;5110964;28;20020;-68
2021/11/12 07:22:10;;;;;;;12.40;6.35;;;;;;;;;;5111585;28;20443;-68
2021/11/12 07:24:37;;;;;;;17.40;6.95;;;;;;;;;;5114386;28;20463;-68
2021/11/12 07:27:05;;;;;;;17.05;6.85;;;;;;;;;;5110754;28;20023;-68
2021/11/12 07:29:31;;;;;;;15.30;6.65;;;;;;;;;;5110854;28;20019;-68
2021/11/12 07:31:58;;;;;;;16.08;6.72;;;;;;;;;;5110521;28;20517;-68
2021/11/12 07:34:26;;;;;;;12.98;6.00;;;;;;;;;;5111050;28;20055;-68
2021/11/12 07:36:54;;;;;;;11.77;5.22;;;;;;;;;;5113262;28;20055;-68
2021/11/12 07:42:11;;;;;;;7.32;4.78;;;;;;;;;;5110129;28;20100;-68
2021/11/12 07:49:40;;;;;;;10.00;4.80;;;;;;;;;;5110534;28;20082;-69
2021/11/12 07:52:06;;;;;;;11.40;4.90;;;;;;;;;;5111375;28;20032;-68
2021/11/12 07:54:33;;;;;;;9.77;5.10;;;;;;;;;;5113082;28;20390;-69
2021/11/12 07:57:03;;;;;;;9.55;6.07;;;;;;;;;;5110509;28;20483;-69
2021/11/12 07:59:29;;;;;;;11.70;5.60;;;;;;;;;;5110269;28;20024;-69
2021/11/12 08:01:56;;;;;;;10.07;4.70;;;;;;;;;;5109974;28;20402;-69
2021/11/12 08:04:22;;;;;;;9.70;4.68;;;;;;;;;;5110179;28;20012;-69
2021/11/12 08:06:55;;;;;;;8.82;4.03;;;;;;;;;;5111872;28;20023;-69
2021/11/12 08:09:24;;;;;;;7.75;4.47;;;;;;;;;;5113893;28;20012;-69
2021/11/12 08:11:57;;;;;;;11.50;4.20;;;;;;;;;;5109787;28;20123;-69
2021/11/12 08:14:31;;;;;;;7.28;3.85;;;;;;;;;;5109415;28;20062;-69
2021/11/12 08:19:46;;;;;;;8.32;4.82;;;;;;;;;;5110182;28;20401;-69
2021/11/12 08:22:18;;;;;;;6.22;3.83;;;;;;;;;;5093386;28;20042;-64
2021/11/12 08:27:52;;;;;;;14.15;7.13;;;;;;;;;;5112256;28;20038;-63
2021/11/12 08:30:27;;;;;;;9.73;6.40;;;;;;;;;;5112531;28;20032;-63
2021/11/12 08:33:12;;;;;;;11.20;6.20;;;;;;;;;;5108993;28;20024;-63
2021/11/12 08:38:23;;;;;;;10.80;5.93;;;;;;;;;;5109538;28;20028;-63
2021/11/12 08:43:20;;;;;;;10.35;5.45;;;;;;;;;;5109557;28;20032;-63
2021/11/12 08:48:22;;;;;;;13.25;5.20;;;;;;;;;;5112289;28;20028;-63
2021/11/12 08:50:48;;;;;;;14.48;7.40;;;;;;;;;;5109343;28;20012;-64
2021/11/12 08:53:16;;;;;;;12.30;7.15;;;;;;;;;;5108093;28;20031;-63
2021/11/12 08:55:44;;;;;;;15.55;8.13;;;;;;;;;;5108953;28;20555;-64
2021/11/12 08:58:11;;;;;;;13.30;7.57;;;;;;;;;;5093479;28;20106;-65
2021/11/12 09:00:38;;;;;;;15.85;7.97;;;;;;;;;;5112450;28;20101;-65
2021/11/12 09:03:04;;;;;;;16.30;8.45;;;;;;;;;;5108710;28;20103;-63
2021/11/12 09:05:30;;;;;;;13.45;7.28;;;;;;;;;;5109195;28;20107;-63
2021/11/12 09:07:57;;;;;;;13.88;7.13;;;;;;;;;;5108883;28;20387;-63
2021/11/12 09:10:25;;;;;;;12.68;6.97;;;;;;;;;;5108985;28;20086;-63
2021/11/12 09:12:57;;;;;;;15.15;6.55;;;;;;;;;;5110091;28;20105;-63
2021/11/12 09:15:27;;;;;;;9.88;5.03;;;;;;;;;;5110572;28;20047;-63
2021/11/12 09:17:53;;;;;;;12.57;5.93;;;;;;;;;;5108326;28;20375;-63
2021/11/12 09:20:20;;;;;;;10.73;5.65;;;;;;;;;;5108518;28;20096;-63
2021/11/12 09:22:46;;;;;;;14.90;5.43;;;;;;;;;;5108778;28;20043;-63
2021/11/12 09:25:13;;;;;;;10.07;5.03;;;;;;;;;;5109007;28;20024;-63
2021/11/12 09:27:39;;;;;;;11.15;5.75;;;;;;;;;;5106738;28;20027;-63
2021/11/12 09:30:06;;;;;;;9.07;5.15;;;;;;;;;;5108033;28;20437;-63
2021/11/12 09:32:32;;;;;;;10.50;5.80;;;;;;;;;;5108478;28;20398;-63
2021/11/12 09:34:58;;;;;;;10.70;5.30;;;;;;;;;;5108377;28;20023;-63
2021/11/12 09:37:25;;;;;;;9.70;5.03;;;;;;;;;;5108680;28;20035;-63
2021/11/12 09:39:56;;;;;;;11.02;5.10;;;;;;;;;;5111303;28;20027;-63
2021/11/12 09:42:24;;;;;;;9.23;4.90;;;;;;;;;;5109587;28;20039;-63
2021/11/12 09:44:51;;;;;;;9.27;5.18;;;;;;;;;;5109654;28;20406;-63
2021/11/12 09:47:23;;;;;;;16.92;5.15;;;;;;;;;;5108440;28;20103;-63
2021/11/12 09:49:49;;;;;;;9.75;5.38;;;;;;;;;;5108626;28;20020;-63
2021/11/12 09:52:15;;;;;;;8.88;4.63;;;;;;;;;;5107912;28;20479;-63
2021/11/12 09:54:41;;;;;;;14.73;5.05;;;;;;;;;;5111965;28;20035;-63
2021/11/12 09:57:07;;;;;;;10.20;4.90;;;;;;;;;;5108876;28;20028;-63
2021/11/12 09:59:34;;;;;;;8.05;4.68;;;;;;;;;;5108635;28;20019;-63
2021/11/12 10:02:02;;;;;;;11.13;4.70;;;;;;;;;;5107895;28;20024;-63
2021/11/12 10:04:30;;;;;;;8.90;4.63;;;;;;;;;;5109242;28;20386;-63
2021/11/12 10:06:57;;;;;;;9.17;4.73;;;;;;;;;;5113987;28;20545;-63
2021/11/12 10:09:23;;;;;;;12.05;5.10;;;;;;;;;;5112996;28;20256;-63
2021/11/12 10:11:57;;;;;;;10.05;5.30;;;;;;;;;;5111854;28;20102;-63
2021/11/12 10:14:30;;;;;;;10.60;5.10;;;;;;;;;;5111846;28;20024;-63
2021/11/12 10:16:57;;;;;;;11.05;4.60;;;;;;;;;;5111373;28;20016;-63
2021/11/12 10:19:25;;;;;;;9.02;4.40;;;;;;;;;;5112399;28;20026;-63
2021/11/12 10:21:56;;;;;;;12.95;4.50;;;;;;;;;;5114379;28;20027;-63
2021/11/12 10:24:22;;;;;;;10.95;5.00;;;;;;;;;;5113779;28;20020;-63
2021/11/12 10:26:53;;;;;;;10.20;5.47;;;;;;;;;;5112269;27;20096;-63
2021/11/12 10:29:21;;;;;;;13.07;5.70;;;;;;;;;;5111810;28;20024;-63
2021/11/12 10:31:49;;;;;;;14.40;7.05;;;;;;;;;;5111463;28;20510;-63
2021/11/12 10:34:16;;;;;;;10.20;5.50;;;;;;;;;;5111786;28;20489;-63
2021/11/12 10:36:46;;;;;;;8.88;5.65;;;;;;;;;;5114155;28;20022;-63
2021/11/12 10:39:12;;;;;;;10.77;5.28;;;;;;;;;;5110363;28;20024;-63
2021/11/12 10:41:38;;;;;;;9.23;5.82;;;;;;;;;;5109901;28;20436;-62
2021/11/12 10:44:11;;;;;;;12.90;5.90;;;;;;;;;;5110139;28;20106;-63
2021/11/12 10:46:44;;;;;;;11.00;5.68;;;;;;;;;;5109707;28;20023;-63
2021/11/12 10:49:23;;;;;;;8.23;5.13;;;;;;;;;;5111828;28;20032;-62
2021/11/12 10:51:53;;;;;;;11.90;4.82;;;;;;;;;;5110180;28;20033;-64
2021/11/12 10:54:40;;;;;;;8.25;4.20;;;;;;;;;;5114646;28;20061;-63
2021/11/12 10:57:07;;;;;;;8.52;4.30;;;;;;;;;;5110505;28;20467;-62
2021/11/12 10:59:37;;;;;;;8.90;4.68;;;;;;;;;;5111281;28;20027;-64
2021/11/12 11:02:04;;;;;;;9.00;4.53;;;;;;;;;;5110727;28;20228;-64
2021/11/12 11:04:32;;;;;;;9.98;4.63;;;;;;;;;;5109529;28;20288;-63
2021/11/12 11:07:17;;;;;;;10.82;5.28;;;;;;;;;;5110130;28;20095;-63
2021/11/12 11:09:43;;;;;;;9.82;4.32;;;;;;;;;;5105492;28;20114;-63
2021/11/12 11:12:09;;;;;;;8.07;4.40;;;;;;;;;;5112669;28;20455;-63
2021/11/12 11:14:35;;;;;;;8.52;4.82;;;;;;;;;;5110736;28;20016;-63
2021/11/12 11:17:20;;;;;;;12.88;5.07;;;;;;;;;;5108655;28;20104;-63
2021/11/12 11:19:47;;;;;;;9.15;4.78;;;;;;;;;;5110959;28;20061;-63
2021/11/12 11:22:15;;;;;;;9.95;5.10;;;;;;;;;;5111623;28;20031;-63
2021/11/12 11:24:41;;;;;;;12.43;5.13;;;;;;;;;;5110292;28;20024;-63
2021/11/12 11:27:07;;;;;;;11.65;5.25;;;;;;;;;;5110274;28;20022;-64
2021/11/12 11:29:33;;;;;;;9.27;4.75;;;;;;;;;;5111129;28;20057;-63
2021/11/12 11:31:59;;;;;;;9.70;4.85;;;;;;;;;;5110317;28;20083;-63
2021/11/12 11:34:28;;;;;;;9.35;5.00;;;;;;;;;;5082278;28;20034;-63
2021/11/12 11:36:56;;;;;;;10.38;5.20;;;;;;;;;;5107622;28;20684;-63
2021/11/12 11:39:22;;;;;;;10.50;5.70;;;;;;;;;;5110783;28;20045;-63
2021/11/12 11:41:49;;;;;;;8.95;5.07;;;;;;;;;;5110699;28;20026;-65
2021/11/12 11:44:16;;;;;;;7.78;4.82;;;;;;;;;;5105907;28;20031;-64
2021/11/12 11:46:45;;;;;;;8.63;5.10;;;;;;;;;;5109293;28;20016;-64
2021/11/12 11:49:17;;;;;;;9.95;5.13;;;;;;;;;;5093197;28;20024;-64
2021/11/12 11:51:53;;;;;;;11.05;5.25;;;;;;;;;;5108313;28;20077;-64
2021/11/12 11:54:21;;;;;;;9.63;5.53;;;;;;;;;;5103900;28;20027;-64
2021/11/12 11:56:47;;;;;;;9.55;5.28;;;;;;;;;;5098975;28;20026;-64
2021/11/12 11:59:24;;;;;;;12.20;5.20;;;;;;;;;;5108945;28;20032;-64
2021/11/12 12:01:51;;;;;;;10.85;5.35;;;;;;;;;;5108639;28;20024;-64
2021/11/12 12:04:17;;;;;;;9.77;5.40;;;;;;;;;;5107682;28;20028;-64
2021/11/12 12:07:04;;;;;;;17.00;6.00;;;;;;;;;;5111608;28;20653;-64
2021/11/12 12:09:50;;;;;;;11.50;6.03;;;;;;;;;;5099567;28;20030;-63
2021/11/12 12:12:34;;;;;;;11.77;5.68;;;;;;;;;;5110277;28;20044;-64
2021/11/12 12:15:08;;;;;;;17.02;6.10;;;;;;;;;;5102255;28;20024;-63
2021/11/12 12:17:35;;;;;;;13.15;5.97;;;;;;;;;;5105071;28;20015;-64
2021/11/12 12:31:09;;;;;;;11.60;6.18;;;;;;;;;;5108065;28;20108;-64
2021/11/12 13:20:10;;;;;;;15.30;6.75;;;;;;;;;;5035482;28;20032;-64
2021/11/12 13:25:07;;;;;;;15.18;6.95;;;;;;;;;;5082774;28;20036;-64
2021/11/12 13:27:33;;;;;;;17.00;8.60;;;;;;;;;;5105225;28;20020;-64
2021/11/12 13:29:59;;;;;;;13.60;7.97;;;;;;;;;;5108847;28;20024;-64
2021/11/12 13:32:25;;;;;;;17.20;7.45;;;;;;;;;;5106307;28;20046;-64
2021/11/12 13:34:51;;;;;;;16.75;6.63;;;;;;;;;;5097594;28;20090;-64
2021/11/12 13:37:17;;;;;;;14.02;7.40;;;;;;;;;;5108002;28;20028;-64
2021/11/12 13:39:44;;;;;;;13.10;6.80;;;;;;;;;;5111754;28;20443;-64
2021/11/12 13:42:10;;;;;;;14.63;7.00;;;;;;;;;;5110534;28;20433;-64
2021/11/12 13:44:38;;;;;;;14.32;6.95;;;;;;;;;;5108121;28;20031;-64
2021/11/12 13:47:04;;;;;;;;;;;;;;;;;;5111324;28;20019;-64
2021/11/12 13:49:34;;;;;;;14.43;7.13;;;;;;;;;;5108519;28;19938;-64
2021/11/12 13:52:01;;;;;;;12.63;6.93;;;;;;;;;;5109599;28;20386;-64
2021/11/12 13:54:29;;;;;;;11.32;6.70;;;;;;;;;;5097093;28;20016;-64
2021/11/12 13:56:55;;;;;;;13.10;7.03;;;;;;;;;;5106710;28;20023;-64
2021/11/12 13:59:22;;;;;;;14.30;7.00;;;;;;;;;;5107810;28;20028;-64
2021/11/12 14:01:59;;;;;;;15.90;7.30;;;;;;;;;;5108107;28;20020;-64
2021/11/12 14:04:27;;;;;;;15.13;6.93;;;;;;;;;;5108445;28;20020;-64
2021/11/12 14:06:54;;;;;;;14.25;6.72;;;;;;;;;;5110728;28;20027;-64
2021/11/12 14:09:21;;;;;;;15.52;7.28;;;;;;;;;;5109176;28;20439;-64
2021/11/12 14:12:02;;;;;;;15.25;7.35;;;;;;;;;;5108231;28;20023;-64
2021/11/12 14:14:29;;;;;;;13.32;6.88;;;;;;;;;;5108145;28;20031;-64
2021/11/12 14:17:01;;;;;;;15.67;8.23;;;;;;;;;;5109849;28;20024;-64
2021/11/12 14:19:53;;;;;;;13.13;7.32;;;;;;;;;;5108533;28;20636;-64
2021/11/12 14:22:58;;;;;;;13.07;7.65;;;;;;;;;;5101567;28;20503;-64
2021/11/12 14:28:02;;;;;;;12.38;6.85;;;;;;;;;;5110182;28;20475;-64
2021/11/12 14:45:40;;;;;;;17.48;7.20;;;;;;;;;;5110859;28;20027;-64
2021/11/12 14:48:29;;;;;;;18.58;8.18;;;;;;;;;;5109694;28;20020;-64
2021/11/12 14:51:12;;;;;;;16.10;7.32;;;;;;;;;;5107824;28;20023;-64
2021/11/12 14:58:33;;;;;;;22.10;8.43;;;;;;;;;;5110788;28;20028;-63
2021/11/12 15:01:19;;;;;;;20.02;8.88;;;;;;;;;;5113612;28;20065;-64
2021/11/12 15:03:46;;;;;;;19.58;9.13;;;;;;;;;;5110462;28;20375;-64
2021/11/12 15:06:14;;;;;;;19.10;9.18;;;;;;;;;;5112218;28;20107;-64
2021/11/12 15:08:46;;;;;;;19.08;9.80;;;;;;;;;;5110892;28;20034;-63
2021/11/12 15:11:13;;;;;;;16.90;7.80;;;;;;;;;;5111220;28;20487;-64
2021/11/12 15:13:41;;;;;;;15.70;7.88;;;;;;;;;;5111174;28;20534;-64
2021/11/12 15:16:15;;;;;;;26.30;13.20;;;;;;;;;;5113769;28;20032;-64
2021/11/12 15:18:42;;;;;;;20.17;12.10;;;;;;;;;;5109922;28;20802;-64
2021/11/12 15:21:14;;;;;;;18.80;10.20;;;;;;;;;;5110923;28;20062;-63
2021/11/12 15:24:05;;;;;;;24.48;11.55;;;;;;;;;;5111146;28;20763;-64
2021/11/12 15:29:06;;;;;;;22.92;10.95;;;;;;;;;;5108842;28;20039;-64
2021/11/12 15:31:43;;;;;;;24.17;13.65;;;;;;;;;;5109081;28;20028;-64
2021/11/12 15:34:11;;;;;;;22.42;11.88;;;;;;;;;;5109651;28;20063;-65
2021/11/12 15:36:44;;;;;;;;;;;;;;;;;;5112583;28;20043;-63
2021/11/12 15:39:13;;;;;;;18.27;10.32;;;;;;;;;;5111219;28;19934;-65
2021/11/12 15:44:17;;;;;;;21.40;10.80;;;;;;;;;;5110653;28;20544;-64
2021/11/12 15:46:46;;;;;;;21.40;11.05;;;;;;;;;;5112301;28;20160;-64
2021/11/12 15:49:17;;;;;;;21.92;11.40;;;;;;;;;;5094702;28;20470;-64
2021/11/12 15:51:54;;;;;;;19.15;11.15;;;;;;;;;;5109893;28;20042;-64
2021/11/12 15:59:53;;;;;;;23.60;12.07;;;;;;;;;;5110088;28;20046;-65
2021/11/12 16:18:16;;;;;;;27.58;14.55;;;;;;;;;;5112281;28;20085;-64
2021/11/12 16:26:01;;;;;;;31.83;18.02;;;;;;;;;;5109322;28;20378;-65
2021/11/12 16:28:33;;;;;;;;;;;;;;;;;;5110091;28;20099;-63
2021/11/12 16:31:02;;;;;;;19.02;10.32;;;;;;;;;;5110450;28;20322;-65
2021/11/12 16:33:28;;;;;;;23.02;10.73;;;;;;;;;;5111563;28;20039;-65
2021/11/12 16:36:00;;;;;;;26.27;11.75;;;;;;;;;;5108976;27;20053;-64
2021/11/12 16:38:32;;;;;;;20.67;11.43;;;;;;;;;;5109257;28;20051;-64
2021/11/12 16:41:06;;;;;;;24.17;11.25;;;;;;;;;;5109600;28;20011;-64
2021/11/12 16:46:19;;;;;;;27.23;13.80;;;;;;;;;;5111645;28;20048;-64
2021/11/12 16:48:53;;;;;;;29.80;13.68;;;;;;;;;;5108611;28;20102;-65
2021/11/12 16:51:55;;;;;;;26.58;13.23;;;;;;;;;;5109094;28;20045;-65
2021/11/12 16:56:54;;;;;;;21.95;12.80;;;;;;;;;;5102468;28;20024;-65
2021/11/12 17:02:01;;;;;;;28.27;14.25;;;;;;;;;;5108589;28;20032;-65
2021/11/12 17:07:36;;;;;;;33.83;17.88;;;;;;;;;;5092732;28;20046;-65
2021/11/12 17:10:31;;;;;;;32.20;17.60;;;;;;;;;;5108861;28;20065;-65
2021/11/12 17:15:37;;;;;;;25.92;15.25;;;;;;;;;;5109791;28;20035;-65
2021/11/12 17:18:20;;;;;;;29.70;17.13;;;;;;;;;;5108469;28;20027;-65
2021/11/12 17:49:00;;;;;;;49.95;26.92;;;;;;;;;;5107743;28;20040;-65
2021/11/12 21:47:23;;;;;;;43.10;23.92;;;;;;;;;;5110151;28;20031;-63
2021/11/12 21:49:49;;;;;;;60.92;30.98;;;;;;;;;;5107014;28;20032;-63
2021/11/12 21:52:15;;;;;;;68.38;32.03;;;;;;;;;;5107881;28;20036;-63
2021/11/12 21:54:41;;;;;;;46.17;24.48;;;;;;;;;;5110858;28;20115;-63
2021/11/12 21:57:07;;;;;;;46.75;22.27;;;;;;;;;;5109616;28;20392;-63
2021/11/12 21:59:33;;;;;;;33.70;17.08;;;;;;;;;;5106822;28;20016;-63
2021/11/12 22:02:00;;;;;;;34.20;16.67;;;;;;;;;;5113364;28;20031;-64
2021/11/12 22:04:27;;;;;;;32.70;15.55;;;;;;;;;;5112197;28;20035;-63
2021/11/12 22:06:55;;;;;;;44.88;17.27;;;;;;;;;;5109177;28;20027;-64
2021/11/12 22:09:21;;;;;;;37.58;16.88;;;;;;;;;;5108886;28;20051;-63
2021/11/12 22:11:47;;;;;;;36.88;17.52;;;;;;;;;;5112887;28;20035;-64
2021/11/12 22:14:13;;;;;;;39.13;19.27;;;;;;;;;;5111198;28;20118;-63
2021/11/12 22:16:39;;;;;;;39.85;18.15;;;;;;;;;;5110923;28;20363;-63
2021/11/12 22:19:05;;;;;;;41.05;18.58;;;;;;;;;;5112573;28;20096;-64
2021/11/12 22:21:31;;;;;;;33.50;17.05;;;;;;;;;;5111751;28;20027;-63
2021/11/12 22:23:57;;;;;;;40.22;17.88;;;;;;;;;;5107459;28;20539;-63
2021/11/12 22:26:23;;;;;;;33.40;18.13;;;;;;;;;;5105412;28;20027;-63
2021/11/12 22:28:50;;;;;;;35.00;17.70;;;;;;;;;;5111806;28;20019;-63
2021/11/12 22:31:17;;;;;;;34.33;18.70;;;;;;;;;;5111375;28;20064;-63
2021/11/12 22:33:43;;;;;;;32.97;17.20;;;;;;;;;;5114599;28;20528;-64
2021/11/12 22:36:09;;;;;;;33.30;17.45;;;;;;;;;;5111305;28;20102;-63
2021/11/12 22:38:35;;;;;;;32.20;17.25;;;;;;;;;;5110046;28;20019;-64
2021/11/12 22:41:01;;;;;;;38.80;18.42;;;;;;;;;;5109009;28;20049;-64
2021/11/12 22:43:28;;;;;;;31.63;17.00;;;;;;;;;;5111820;28;20028;-64
2021/11/12 22:45:54;;;;;;;36.63;17.92;;;;;;;;;;5111768;28;20080;-64
2021/11/12 22:48:20;;;;;;;33.78;18.40;;;;;;;;;;5110949;28;20039;-64
2021/11/12 22:50:47;;;;;;;34.63;16.92;;;;;;;;;;5109279;28;20027;-64
2021/11/12 22:53:13;;;;;;;28.73;13.30;;;;;;;;;;5109836;28;20035;-64
2021/11/12 22:55:39;;;;;;;41.75;20.38;;;;;;;;;;5110686;28;20030;-63
2021/11/12 22:58:05;;;;;;;39.33;17.73;;;;;;;;;;5112595;28;20045;-64
2021/11/12 23:00:34;;;;;;;33.88;17.05;;;;;;;;;;5113568;28;20053;-63
2021/11/12 23:03:01;;;;;;;36.05;17.92;;;;;;;;;;5110976;28;20031;-63
2021/11/12 23:05:27;;;;;;;34.63;17.77;;;;;;;;;;5111278;28;20030;-63
2021/11/12 23:07:53;;;;;;;31.52;17.92;;;;;;;;;;5109161;28;20085;-63
2021/11/12 23:10:20;;;;;;;35.35;19.83;;;;;;;;;;5110763;28;20479;-63
2021/11/12 23:12:47;;;;;;;38.78;20.40;;;;;;;;;;5113314;28;20046;-64
2021/11/12 23:15:13;;;;;;;39.17;18.60;;;;;;;;;;5112765;28;20386;-64
2021/11/12 23:17:40;;;;;;;41.13;18.67;;;;;;;;;;5110893;28;20482;-64
2021/11/12 23:20:06;;;;;;;34.28;18.30;;;;;;;;;;5110848;28;20039;-64
2021/11/12 23:22:32;;;;;;;43.15;18.65;;;;;;;;;;5110517;28;20039;-64
2021/11/12 23:24:58;;;;;;;42.92;18.02;;;;;;;;;;5113122;28;20024;-64
2021/11/12 23:27:24;;;;;;;43.00;17.35;;;;;;;;;;5112252;28;20080;-64
2021/11/12 23:29:50;;;;;;;37.70;17.08;;;;;;;;;;5110501;28;20076;-64
2021/11/12 23:32:16;;;;;;;35.08;16.35;;;;;;;;;;5110570;28;20051;-64
2021/11/12 23:34:42;;;;;;;38.72;17.08;;;;;;;;;;5110102;28;20471;-63
2021/11/12 23:37:08;;;;;;;36.28;16.63;;;;;;;;;;5111372;28;20043;-64
2021/11/12 23:39:34;;;;;;;31.38;15.95;;;;;;;;;;5113112;28;20030;-64
2021/11/12 23:42:00;;;;;;;35.17;15.43;;;;;;;;;;5109979;28;20028;-64
2021/11/12 23:44:26;;;;;;;27.20;11.57;;;;;;;;;;5112483;28;20023;-64
2021/11/12 23:46:52;;;;;;;26.88;11.55;;;;;;;;;;5110003;28;20031;-64
2021/11/12 23:49:18;;;;;;;38.03;19.42;;;;;;;;;;5110502;28;20031;-63
2021/11/12 23:51:46;;;;;;;33.97;16.02;;;;;;;;;;5113107;28;20784;-63
2021/11/12 23:54:12;;;;;;;33.80;16.23;;;;;;;;;;5110570;28;20119;-64
2021/11/12 23:56:38;;;;;;;31.73;15.40;;;;;;;;;;5110242;28;20028;-65
2021/11/12 23:59:04;;;;;;;36.00;14.52;;;;;;;;;;5110359;28;20028;-63
